Time;durP1;ratioP1;P1;durP2;ratioP2;P2;SDS_P1;SDS_P2;PMS_P1;PMS_P2;Temp;Humidity;BMP_temperature;BMP_pressure;BME280_temperature;BME280_humidity;BME280_pressure;Samples;Min_cycle;Max_cycle;Signal;HPM_P1;HPM_P2
2023/03/29 00:01:32;;;;;;;;;7.67;7.33;;;;;12.84;100.00;101438.19;4973700;28;45404;-80
2023/03/29 00:03:59;;;;;;;;;9.50;7.75;;;;;12.83;100.00;101447.00;4973827;28;45514;-79
2023/03/29 00:06:24;;;;;;;;;6.67;5.33;;;;;12.88;100.00;101450.59;4971153;28;47616;-79
2023/03/29 00:08:50;;;;;;;;;9.75;9.75;;;;;12.92;100.00;101454.16;4958556;28;45494;-78
2023/03/29 00:11:16;;;;;;;;;7.25;6.50;;;;;12.95;100.00;101439.19;4979537;28;45637;-78
2023/03/29 00:13:42;;;;;;;;;11.00;9.50;;;;;13.02;100.00;101446.34;4964559;28;45507;-80
2023/03/29 00:16:08;;;;;;;;;10.00;7.25;;;;;13.05;100.00;101453.44;4977486;28;46131;-79
2023/03/29 00:18:33;;;;;;;;;9.33;9.00;;;;;13.03;100.00;101449.88;4942088;28;45414;-80
2023/03/29 00:20:59;;;;;;;;;9.50;9.50;;;;;13.03;100.00;101448.09;4982642;28;45524;-79
2023/03/29 00:23:24;;;;;;;;;9.00;7.67;;;;;13.06;100.00;101445.50;4975459;28;45599;-78
2023/03/29 00:25:52;;;;;;;;;10.67;9.67;;;;;13.06;100.00;101445.50;4960341;28;47347;-79
2023/03/29 00:28:17;;;;;;;;;11.00;9.00;;;;;13.07;100.00;101447.28;4953225;28;45398;-79
2023/03/29 00:30:43;;;;;;;;;9.00;7.00;;;;;13.08;100.00;101441.09;4976713;28;45252;-79
2023/03/29 00:33:08;;;;;;;;;10.67;6.67;;;;;13.14;100.00;101447.34;4950436;28;45612;-80
2023/03/29 00:35:33;;;;;;;;;12.50;9.75;;;;;13.18;100.00;101449.16;4969561;28;45683;-79
2023/03/29 00:37:59;;;;;;;;;11.25;7.25;;;;;13.18;100.00;101447.38;4952628;28;57214;-79
2023/03/29 00:40:24;;;;;;;;;8.25;8.25;;;;;13.24;99.94;101446.59;4975516;28;59948;-80
2023/03/29 00:42:50;;;;;;;;;5.25;5.25;;;;;13.26;100.00;101447.47;4986449;22;45544;-79
2023/03/29 00:45:31;;;;;;;;;9.50;9.50;;;;;13.27;100.00;101450.16;4994531;28;64971;-78
2023/03/29 00:48:01;;;;;;;;;10.75;9.25;;;;;13.24;100.00;101442.19;5004202;22;45809;-79
2023/03/29 00:50:40;;;;;;;;;8.00;6.67;;;;;13.27;100.00;101439.56;4989964;28;45396;-79
2023/03/29 00:53:32;;;;;;;;;9.75;8.50;;;;;13.29;100.00;101445.75;4994153;28;45301;-78
2023/03/29 00:56:05;;;;;;;;;9.00;9.00;;;;;13.30;100.00;101447.53;5013707;28;46534;-78
2023/03/29 00:58:52;;;;;;;;;9.00;6.00;;;;;13.32;100.00;101442.25;4996563;28;45229;-78
2023/03/29 01:01:24;;;;;;;;;11.00;9.00;;;;;13.30;100.00;101434.28;5012184;28;45527;-78
2023/03/29 01:04:03;;;;;;;;;12.00;6.33;;;;;13.30;100.00;101433.38;5009670;28;45538;-79
2023/03/29 01:06:32;;;;;;;;;6.33;6.33;;;;;13.30;100.00;101428.09;4972286;28;47284;-77
2023/03/29 01:09:01;;;;;;;;;11.50;8.00;;;;;13.33;99.84;101430.78;5005521;28;45407;-80
2023/03/29 01:11:31;;;;;;;;;8.33;7.00;;;;;13.34;99.85;101432.53;5009228;28;45348;-78
2023/03/29 01:14:17;;;;;;;;;7.00;7.00;;;;;13.36;99.66;101429.03;4995008;28;45603;-79
2023/03/29 01:16:44;;;;;;;;;7.00;5.67;;;;;13.36;99.57;101431.66;5013304;28;47524;-79
2023/03/29 01:19:13;;;;;;;;;6.67;6.00;;;;;13.35;99.46;101432.56;5012448;28;46586;-78
2023/03/29 01:21:45;;;;;;;;;11.67;8.00;;;;;13.34;99.42;101427.25;4986981;28;45326;-79
2023/03/29 01:24:20;;;;;;;;;7.00;7.00;;;;;13.36;99.48;101433.44;4987164;28;45571;-79
2023/03/29 01:27:16;;;;;;;;;7.33;6.33;;;;;13.37;99.34;101424.63;4993708;28;46596;-78
2023/03/29 01:29:56;;;;;;;;;7.00;6.00;;;;;13.40;99.31;101418.44;4997131;28;45651;-78
2023/03/29 01:32:29;;;;;;;;;8.00;5.33;;;;;13.39;98.43;101421.97;5005986;28;45377;-79
2023/03/29 01:35:09;;;;;;;;;6.00;6.00;;;;;13.42;98.40;101412.25;4995848;28;45259;-78
2023/03/29 01:37:55;;;;;;;;;10.67;6.67;;;;;13.42;98.38;101401.66;5002904;28;46594;-78
2023/03/29 01:40:21;;;;;;;;;10.25;10.00;;;;;13.41;98.42;101412.25;4988261;28;45477;-79
2023/03/29 01:43:01;;;;;;;;;9.50;7.00;;;;;13.40;98.07;101407.84;5017242;28;45502;-78
2023/03/29 01:45:45;;;;;;;;;12.00;7.33;;;;;13.44;98.03;101420.25;4997031;28;45433;-78
2023/03/29 01:48:15;;;;;;;;;8.00;6.00;;;;;13.43;98.10;101421.16;5015091;28;46580;-78
2023/03/29 01:50:45;;;;;;;;;8.67;6.00;;;;;13.42;98.20;101414.91;5017705;28;45379;-79
2023/03/29 01:53:17;;;;;;;;;9.67;7.00;;;;;13.44;98.31;101413.19;5010056;28;45647;-79
2023/03/29 01:55:48;;;;;;;;;7.00;6.00;;;;;13.42;98.58;101412.25;5009597;28;45412;-78
2023/03/29 01:58:16;;;;;;;;;7.00;7.00;;;;;13.41;98.39;101414.91;5018105;28;47693;-78
2023/03/29 02:00:42;;;;;;;;;11.00;6.67;;;;;13.40;98.65;101410.50;4990785;28;45302;-79
2023/03/29 02:03:09;;;;;;;;;4.25;4.25;;;;;13.38;98.52;101409.59;5014683;28;45414;-78
2023/03/29 02:05:36;;;;;;;;;8.50;7.00;;;;;13.40;98.50;101408.72;4999652;28;45523;-79
2023/03/29 02:08:04;;;;;;;;;14.00;7.00;;;;;13.42;98.63;101412.25;4996572;28;47360;-78
2023/03/29 02:10:30;;;;;;;;;9.25;9.25;;;;;13.43;98.53;101405.22;4998382;28;45401;-78
2023/03/29 02:12:55;;;;;;;;;10.00;6.00;;;;;13.42;98.42;101406.97;5012392;28;45467;-79
2023/03/29 02:15:22;;;;;;;;;11.33;8.33;;;;;13.38;98.78;101397.22;4997162;28;45296;-78
2023/03/29 02:17:49;;;;;;;;;10.75;9.00;;;;;13.39;98.51;101408.72;5005893;28;47525;-79
2023/03/29 02:20:21;;;;;;;;;10.50;8.00;;;;;13.41;98.22;101399.00;5013474;28;45370;-79
2023/03/29 02:23:03;;;;;;;;;7.67;7.67;;;;;13.42;98.51;101398.13;4997829;28;45475;-79
2023/03/29 02:25:29;;;;;;;;;10.33;8.33;;;;;13.43;98.61;101392.84;5014180;28;45372;-78
2023/03/29 02:27:55;;;;;;;;;10.33;9.00;;;;;13.43;98.27;101389.31;5012559;28;45536;-78
2023/03/29 02:30:21;;;;;;;;;11.67;8.67;;;;;13.43;98.42;101384.00;5016073;28;46186;-78
2023/03/29 02:32:51;;;;;;;;;8.33;7.00;;;;;13.43;98.58;101374.28;4994178;28;45887;-78
2023/03/29 02:35:23;;;;;;;;;12.00;7.67;;;;;13.45;98.85;101382.25;4993867;28;45392;-78
2023/03/29 02:37:53;;;;;;;;;9.75;8.50;;;;;13.46;98.80;101384.00;4993228;28;46250;-78
2023/03/29 02:40:20;;;;;;;;;7.00;7.00;;;;;13.47;98.41;101377.81;4999069;28;45435;-78
2023/03/29 02:42:47;;;;;;;;;11.00;7.00;;;;;13.48;99.08;101366.38;4998613;28;45297;-78
2023/03/29 02:45:15;;;;;;;;;12.33;8.33;;;;;13.49;98.72;101368.13;4996284;28;45431;-78
2023/03/29 02:47:44;;;;;;;;;9.67;8.67;;;;;13.50;98.27;101361.94;4992411;28;46212;-77
2023/03/29 02:50:09;;;;;;;;;11.00;11.00;;;;;13.51;98.58;101364.59;4996724;28;45517;-79
2023/03/29 02:52:38;;;;;;;;;10.33;8.00;;;;;13.52;98.37;101355.75;5013457;28;58788;-79
2023/03/29 02:55:08;;;;;;;;;6.67;6.67;;;;;13.54;98.72;101347.84;5008108;28;45488;-78
2023/03/29 02:57:37;;;;;;;;;6.33;6.00;;;;;13.53;98.61;101357.56;4995793;28;47543;-79
2023/03/29 03:00:04;;;;;;;;;11.00;8.33;;;;;13.50;98.50;101341.59;4969386;28;46589;-79
2023/03/29 03:02:29;;;;;;;;;11.33;6.33;;;;;13.50;99.04;101351.34;5013239;28;46335;-78
2023/03/29 03:04:54;;;;;;;;;12.33;9.33;;;;;13.50;99.22;101354.88;5008247;28;55390;-79
2023/03/29 03:07:20;;;;;;;;;9.67;7.33;;;;;13.49;99.01;101363.72;5011200;28;45380;-79
2023/03/29 03:09:46;;;;;;;;;6.00;6.00;;;;;13.50;98.77;101362.81;5012206;28;53212;-78
2023/03/29 03:12:12;;;;;;;;;11.00;7.67;;;;;13.49;98.85;101358.41;5008702;28;45525;-79
2023/03/29 03:14:38;;;;;;;;;9.33;9.33;;;;;13.50;99.14;101362.81;5019283;28;45345;-79
2023/03/29 03:17:03;;;;;;;;;7.00;6.33;;;;;13.51;99.30;101361.06;5014165;28;46723;-78
2023/03/29 03:19:29;;;;;;;;;7.00;7.00;;;;;13.50;99.58;101362.81;5006632;28;64920;-79
2023/03/29 03:21:54;;;;;;;;;7.67;6.00;;;;;13.48;99.86;101359.28;5017560;28;45413;-79
2023/03/29 03:24:20;;;;;;;;;9.33;7.00;;;;;13.44;100.00;101344.22;5015225;28;45550;-78
2023/03/29 03:26:45;;;;;;;;;10.00;6.00;;;;;13.40;100.00;101341.53;5015891;28;46767;-78
2023/03/29 03:29:12;;;;;;;;;8.00;8.00;;;;;13.42;100.00;101347.72;4989683;28;57821;-79
2023/03/29 03:31:40;;;;;;;;;9.00;7.00;;;;;13.38;100.00;101344.19;5006064;28;45545;-78
2023/03/29 03:34:07;;;;;;;;;6.00;6.00;;;;;13.37;100.00;101360.97;4995895;28;45574;-78
2023/03/29 03:36:33;;;;;;;;;5.00;5.00;;;;;13.36;100.00;101360.06;5004809;28;45839;-78
2023/03/29 03:38:59;;;;;;;;;9.33;6.67;;;;;13.33;100.00;101337.94;5012193;28;45470;-79
2023/03/29 03:41:25;;;;;;;;;4.33;4.00;;;;;13.34;100.00;101339.72;5009136;28;45383;-78
2023/03/29 03:43:50;;;;;;;;;12.00;7.67;;;;;13.37;100.00;101350.38;5009035;28;45651;-78
2023/03/29 03:46:16;;;;;;;;;6.33;5.00;;;;;13.38;100.00;101359.22;5010030;28;46052;-79
2023/03/29 03:48:42;;;;;;;;;7.00;6.00;;;;;13.35;100.00;101357.41;5013020;28;45501;-79
2023/03/29 03:51:08;;;;;;;;;9.00;6.00;;;;;13.35;100.00;101355.63;5012654;28;45443;-80
2023/03/29 03:53:33;;;;;;;;;9.25;7.00;;;;;13.34;100.00;101351.22;5013180;28;45844;-78
2023/03/29 03:56:01;;;;;;;;;7.67;6.00;;;;;13.35;100.00;101354.75;5009639;28;46322;-80
2023/03/29 03:58:26;;;;;;;;;6.75;6.75;;;;;13.37;100.00;101350.38;5013225;28;45301;-78
2023/03/29 04:00:51;;;;;;;;;8.33;5.67;;;;;13.35;100.00;101347.69;5014417;28;45499;-77
2023/03/29 04:03:17;;;;;;;;;6.67;5.00;;;;;13.34;100.00;101345.91;4992969;28;47843;-79
2023/03/29 04:05:44;;;;;;;;;10.33;6.00;;;;;13.32;100.00;101341.47;5012858;28;47167;-79
2023/03/29 04:08:11;;;;;;;;;7.00;6.00;;;;;13.33;100.00;101360.03;4995986;28;45276;-78
2023/03/29 04:10:37;;;;;;;;;10.33;4.00;;;;;13.33;100.00;101337.94;5015112;28;45476;-78
2023/03/29 04:13:03;;;;;;;;;10.00;6.00;;;;;13.34;100.00;101340.59;5015103;28;45503;-78
2023/03/29 04:15:30;;;;;;;;;10.00;8.33;;;;;13.35;100.00;101338.84;5018851;28;46830;-79
2023/03/29 04:17:56;;;;;;;;;9.00;5.00;;;;;13.34;100.00;101334.41;5014818;28;45483;-79
2023/03/29 04:20:23;;;;;;;;;8.67;5.67;;;;;13.32;100.00;101328.22;4998555;28;45427;-80
2023/03/29 04:22:48;;;;;;;;;7.67;6.33;;;;;13.32;100.00;101333.53;5015079;28;45415;-78
2023/03/29 04:25:14;;;;;;;;;6.25;6.25;;;;;13.32;100.00;101342.38;5016149;28;45617;-78
2023/03/29 04:27:39;;;;;;;;;5.67;5.67;;;;;13.33;100.00;101343.25;5013155;28;45329;-78
2023/03/29 04:30:06;;;;;;;;;9.33;5.00;;;;;13.31;100.00;101334.38;5015880;28;46253;-78
2023/03/29 04:32:31;;;;;;;;;8.00;5.75;;;;;13.31;100.00;101342.34;5011337;28;45247;-78
2023/03/29 04:34:57;;;;;;;;;6.67;4.67;;;;;13.30;100.00;101343.22;4998534;28;46906;-78
2023/03/29 04:37:22;;;;;;;;;6.00;6.00;;;;;13.33;100.00;101338.84;5011180;28;45643;-78
2023/03/29 04:39:48;;;;;;;;;5.33;4.00;;;;;13.32;100.00;101331.75;5015221;28;46047;-79
2023/03/29 04:42:14;;;;;;;;;5.25;5.25;;;;;13.32;100.00;101337.06;4991627;28;45321;-79
2023/03/29 04:44:41;;;;;;;;;6.33;6.00;;;;;13.34;100.00;101331.75;5013675;28;46514;-79
2023/03/29 04:47:06;;;;;;;;;5.00;5.00;;;;;13.31;100.00;101324.66;5013824;28;45374;-80
2023/03/29 04:49:32;;;;;;;;;4.00;4.00;;;;;13.34;100.00;101329.09;5014048;28;45833;-78
2023/03/29 04:51:59;;;;;;;;;6.00;6.00;;;;;13.35;100.00;101313.19;5011105;28;60742;-80
2023/03/29 04:54:25;;;;;;;;;7.00;7.00;;;;;13.35;100.00;101313.19;4993039;28;47933;-76
2023/03/29 04:56:51;;;;;;;;;4.50;4.00;;;;;13.34;100.00;101323.81;5007177;28;45692;-75
2023/03/29 04:59:16;;;;;;;;;8.33;6.33;;;;;13.31;100.00;101318.47;5007946;28;45349;-77
2023/03/29 05:01:42;;;;;;;;;6.75;5.00;;;;;13.24;100.00;101314.88;4987918;28;45523;-78
2023/03/29 05:04:07;;;;;;;;;4.00;4.00;;;;;13.25;100.00;101329.03;5011614;28;63036;-77
2023/03/29 05:06:33;;;;;;;;;9.67;5.00;;;;;13.23;100.00;101330.78;5016808;28;46372;-79
2023/03/29 05:08:59;;;;;;;;;5.67;4.67;;;;;13.26;100.00;101333.44;4998213;28;58463;-77
2023/03/29 05:11:25;;;;;;;;;4.33;4.00;;;;;13.28;100.00;101340.56;5016000;28;45491;-76
2023/03/29 05:13:51;;;;;;;;;7.50;4.75;;;;;13.30;100.00;101332.59;5015191;28;45654;-76
2023/03/29 05:16:17;;;;;;;;;7.67;4.67;;;;;13.31;100.00;101337.91;4998980;28;45725;-76
2023/03/29 05:18:43;;;;;;;;;6.00;4.00;;;;;13.36;100.00;101343.25;4994989;28;45640;-79
2023/03/29 05:21:08;;;;;;;;;4.00;4.00;;;;;13.38;100.00;101341.53;5013256;28;45697;-77
2023/03/29 05:23:34;;;;;;;;;4.00;4.00;;;;;13.38;100.00;101338.88;5015526;28;57631;-78
2023/03/29 05:25:59;;;;;;;;;4.33;4.33;;;;;13.41;100.00;101332.69;4975239;28;45493;-77
2023/03/29 05:28:24;;;;;;;;;2.67;2.67;;;;;13.43;100.00;101328.31;5016933;28;58268;-77
2023/03/29 05:31:00;;;;;;;;;5.00;4.00;;;;;13.48;100.00;101323.91;5015331;28;45231;-77
2023/03/29 05:33:26;;;;;;;;;3.00;3.00;;;;;13.48;100.00;101311.53;4999224;28;47391;-77
2023/03/29 05:36:02;;;;;;;;;4.00;3.00;;;;;13.48;100.00;101300.94;4990914;28;45424;-78
2023/03/29 05:38:29;;;;;;;;;9.00;4.00;;;;;13.51;100.00;101306.22;4996530;28;45553;-76
2023/03/29 05:40:55;;;;;;;;;3.00;3.00;;;;;13.55;100.00;101320.41;5018794;28;45636;-77
2023/03/29 05:43:21;;;;;;;;;4.33;3.00;;;;;13.56;100.00;101314.22;4997447;28;46131;-77
2023/03/29 05:45:46;;;;;;;;;2.00;2.00;;;;;13.57;100.00;101308.03;5010153;28;45452;-77
2023/03/29 05:48:12;;;;;;;;;4.00;3.00;;;;;13.59;100.00;101315.16;5012641;28;45501;-78
2023/03/29 05:50:37;;;;;;;;;2.67;2.67;;;;;13.59;100.00;101315.16;5018239;28;45495;-78
2023/03/29 05:53:02;;;;;;;;;4.00;3.00;;;;;13.64;100.00;101325.78;5013709;28;67235;-77
2023/03/29 05:55:28;;;;;;;;;4.00;3.00;;;;;13.69;100.00;101312.53;5010070;28;66190;-77
2023/03/29 05:57:53;;;;;;;;;2.00;2.00;;;;;13.73;100.00;101314.31;4993002;28;45405;-78
2023/03/29 06:00:22;;;;;;;;;3.67;2.00;;;;;13.75;100.00;101315.25;5010061;28;45639;-77
2023/03/29 06:02:49;;;;;;;;;7.00;3.00;;;;;13.80;100.00;101325.00;5006270;28;47477;-76
2023/03/29 06:05:15;;;;;;;;;5.33;3.33;;;;;13.81;100.00;101320.59;5002779;28;45502;-78
2023/03/29 06:07:41;;;;;;;;;5.33;5.00;;;;;13.87;100.00;101321.50;4984089;28;45433;-77
2023/03/29 06:10:08;;;;;;;;;5.00;4.67;;;;;13.88;100.00;101319.72;4999078;28;45673;-78
2023/03/29 06:12:34;;;;;;;;;3.67;3.67;;;;;13.85;100.00;101311.75;5000848;28;45784;-77
2023/03/29 06:15:03;;;;;;;;;6.00;4.00;;;;;13.84;100.00;101318.81;5005849;28;45369;-76
2023/03/29 06:17:29;;;;;;;;;4.00;4.00;;;;;13.85;100.00;101314.41;5006216;28;45503;-77
2023/03/29 06:19:56;;;;;;;;;5.00;4.33;;;;;13.83;100.00;101311.72;4998398;28;45579;-78
2023/03/29 06:22:22;;;;;;;;;6.00;4.00;;;;;13.87;100.00;101317.94;4988815;28;47786;-77
2023/03/29 06:24:47;;;;;;;;;4.00;4.00;;;;;13.91;100.00;101309.13;5004077;28;45460;-75
2023/03/29 06:27:13;;;;;;;;;4.33;4.33;;;;;13.94;100.00;101310.91;4998082;28;45526;-77
2023/03/29 06:29:39;;;;;;;;;4.33;3.00;;;;;13.96;100.00;101310.03;5013053;28;45562;-76
2023/03/29 06:32:04;;;;;;;;;4.33;4.33;;;;;13.98;100.00;101308.28;5012213;28;45550;-78
2023/03/29 06:34:30;;;;;;;;;4.00;3.00;;;;;14.01;100.00;101294.09;5012048;28;45397;-78
2023/03/29 06:36:55;;;;;;;;;4.00;4.00;;;;;14.04;100.00;101300.31;5013232;28;60885;-77
2023/03/29 06:39:20;;;;;;;;;4.00;4.00;;;;;14.09;100.00;101305.66;5014721;28;45329;-76
2023/03/29 06:41:46;;;;;;;;;6.33;4.33;;;;;14.14;100.00;101310.09;5007111;28;45496;-76
2023/03/29 06:44:11;;;;;;;;;4.33;3.00;;;;;14.19;100.00;101312.78;5006291;28;47314;-77
2023/03/29 06:46:37;;;;;;;;;5.00;4.00;;;;;14.26;100.00;101317.22;4987077;28;45590;-78
2023/03/29 06:49:02;;;;;;;;;5.67;4.00;;;;;14.34;100.00;101314.63;5016752;28;45609;-78
2023/03/29 06:51:28;;;;;;;;;5.33;4.00;;;;;14.39;100.00;101318.19;5016166;28;63743;-76
2023/03/29 06:53:53;;;;;;;;;3.67;3.67;;;;;14.48;100.00;101306.69;5015281;28;45301;-79
2023/03/29 06:56:19;;;;;;;;;5.00;3.00;;;;;14.53;100.00;101307.59;4993743;28;45532;-76
2023/03/29 06:58:45;;;;;;;;;4.33;4.33;;;;;14.56;100.00;101313.81;5010179;28;45508;-75
2023/03/29 07:01:11;;;;;;;;;4.67;2.67;;;;;14.61;100.00;101317.38;5011697;28;46286;-77
2023/03/29 07:03:38;;;;;;;;;6.33;4.00;;;;;14.66;100.00;101304.09;5010447;28;45596;-78
2023/03/29 07:06:08;;;;;;;;;5.00;3.33;;;;;14.73;100.00;101310.31;5009607;28;45548;-77
2023/03/29 07:08:42;;;;;;;;;7.00;4.00;;;;;14.79;100.00;101320.94;5015161;28;45563;-78
2023/03/29 07:11:11;;;;;;;;;7.33;5.00;;;;;14.86;100.00;101322.72;5013128;28;46477;-77
2023/03/29 07:13:38;;;;;;;;;5.00;3.67;;;;;14.90;100.00;101314.75;5012126;28;46244;-77
2023/03/29 07:16:05;;;;;;;;;8.00;3.67;;;;;14.99;100.00;101318.31;5013788;28;45471;-77
2023/03/29 07:18:30;;;;;;;;;3.67;3.67;;;;;15.02;100.00;101321.88;5016132;28;45342;-76
2023/03/29 07:20:56;;;;;;;;;5.67;5.67;;;;;15.06;100.00;101315.66;5013962;28;47237;-76
2023/03/29 07:23:22;;;;;;;;;5.67;5.33;;;;;15.11;100.00;101318.31;5014631;28;45497;-78
2023/03/29 07:25:47;;;;;;;;;6.33;4.00;;;;;15.12;100.00;101322.75;5015556;28;45396;-77
2023/03/29 07:28:12;;;;;;;;;7.00;5.67;;;;;15.14;100.00;101308.56;5008725;28;50716;-77
2023/03/29 07:30:38;;;;;;;;;7.00;6.33;;;;;15.19;100.00;101324.53;5014092;28;47042;-77
2023/03/29 07:33:03;;;;;;;;;6.00;5.00;;;;;15.20;100.00;101315.66;5014761;28;70104;-77
2023/03/29 07:35:29;;;;;;;;;7.33;5.00;;;;;15.20;100.00;101318.31;5014193;28;47304;-77
2023/03/29 07:37:58;;;;;;;;;8.33;5.67;;;;;15.18;100.00;101315.69;5010896;28;45534;-81
2023/03/29 07:40:24;;;;;;;;;7.00;6.00;;;;;15.17;100.00;101311.22;5014831;28;46431;-77
2023/03/29 07:42:52;;;;;;;;;9.33;7.00;;;;;15.16;100.00;101303.25;5015127;28;45373;-77
2023/03/29 07:45:19;;;;;;;;;4.00;4.00;;;;;15.19;100.00;101296.16;5009785;28;45307;-77
2023/03/29 07:47:47;;;;;;;;;6.00;4.33;;;;;15.21;100.00;101298.81;5006735;28;45789;-79
2023/03/29 07:50:14;;;;;;;;;6.33;4.67;;;;;15.23;100.00;101291.69;5013259;28;46918;-77
2023/03/29 07:52:39;;;;;;;;;6.67;5.00;;;;;15.28;100.00;101302.34;5015706;28;45574;-78
2023/03/29 07:55:06;;;;;;;;;5.00;5.00;;;;;15.32;100.00;101307.66;5015407;28;46016;-77
2023/03/29 07:57:32;;;;;;;;;10.00;5.00;;;;;15.36;100.00;101305.91;5015124;28;46708;-76
2023/03/29 07:59:57;;;;;;;;;5.00;5.00;;;;;15.41;100.00;101317.44;5011707;28;46355;-79
2023/03/29 08:02:23;;;;;;;;;5.33;5.33;;;;;15.44;100.00;101312.09;5006450;28;54870;-77
2023/03/29 08:04:48;;;;;;;;;6.00;6.00;;;;;15.54;100.00;101323.59;5012871;28;45475;-78
2023/03/29 08:07:15;;;;;;;;;5.00;4.00;;;;;15.60;100.00;101318.25;4992711;28;45611;-77
2023/03/29 08:09:42;;;;;;;;;7.33;4.67;;;;;15.63;100.00;101316.53;5014080;28;47034;-78
2023/03/29 08:12:07;;;;;;;;;4.33;3.00;;;;;15.71;100.00;101328.06;5002921;28;45489;-78
2023/03/29 08:14:33;;;;;;;;;5.00;5.00;;;;;15.75;100.00;101318.28;5017711;28;45346;-79
2023/03/29 08:16:58;;;;;;;;;6.67;3.67;;;;;15.81;100.00;101312.03;5132364;22;45440;-78
2023/03/29 08:19:24;;;;;;;;;8.33;5.67;;;;;15.87;100.00;101328.00;5014212;28;45921;-81
2023/03/29 08:21:49;;;;;;;;;9.00;4.33;;;;;15.91;100.00;101319.13;4995521;28;65367;-78
2023/03/29 08:24:14;;;;;;;;;5.67;5.67;;;;;15.96;100.00;101320.00;5013203;28;45566;-79
2023/03/29 08:26:40;;;;;;;;;5.00;4.00;;;;;16.02;100.00;101311.97;5010382;28;46235;-78
2023/03/29 08:29:07;;;;;;;;;7.00;3.00;;;;;16.05;100.00;101319.97;5003673;28;46939;-78
2023/03/29 08:31:33;;;;;;;;;3.33;3.33;;;;;16.08;100.00;101327.94;5010088;28;45456;-81
2023/03/29 08:33:58;;;;;;;;;5.00;5.00;;;;;16.10;100.00;101319.97;5012253;28;45683;-78
2023/03/29 08:36:23;;;;;;;;;4.67;3.33;;;;;16.11;100.00;101322.59;5013684;28;60911;-78
2023/03/29 08:38:50;;;;;;;;;5.00;4.33;;;;;16.14;100.00;101319.94;5011567;28;46014;-77
2023/03/29 08:41:34;;;;;;;;;5.00;5.00;;;;;16.20;100.00;101322.56;5008721;28;45559;-77
2023/03/29 08:44:22;;;;;;;;;9.00;5.00;;;;;16.30;100.00;101317.19;5015115;28;45269;-78
2023/03/29 08:46:59;;;;;;;;;7.00;4.00;;;;;16.37;100.00;101302.94;4993471;28;45557;-78
2023/03/29 08:49:26;;;;;;;;;4.00;4.00;;;;;16.41;100.00;101302.06;4994267;28;47355;-80
2023/03/29 08:51:58;;;;;;;;;3.67;3.67;;;;;16.43;100.00;101302.91;4987713;28;45364;-78
2023/03/29 08:54:27;;;;;;;;;3.67;3.67;;;;;16.43;100.00;101302.91;5010411;28;45495;-79
2023/03/29 08:56:57;;;;;;;;;3.00;3.00;;;;;16.44;100.00;101302.00;5015223;28;46984;-76
2023/03/29 08:59:29;;;;;;;;;2.67;2.00;;;;;16.46;100.00;101300.25;4992013;28;45802;-77
2023/03/29 09:01:56;;;;;;;;;6.67;3.67;;;;;16.48;100.00;101309.09;5097103;22;46134;-76
2023/03/29 09:04:29;;;;;;;;;3.67;3.00;;;;;16.53;100.00;101315.31;4989954;28;45538;-78
2023/03/29 09:06:54;;;;;;;;;3.00;3.00;;;;;16.56;100.00;101314.38;5013830;28;45608;-80
2023/03/29 09:09:22;;;;;;;;;4.33;4.33;;;;;16.60;100.00;101314.34;4994989;28;47614;-79
2023/03/29 09:12:13;;;;;;;;;6.67;4.00;;;;;16.62;100.00;101315.25;4995833;28;45566;-78
2023/03/29 09:14:51;;;;;;;;;4.00;4.00;;;;;16.67;100.00;101305.44;5013690;28;45413;-80
2023/03/29 09:17:27;;;;;;;;;8.33;4.33;;;;;16.73;100.00;101301.88;5008057;28;45541;-81
2023/03/29 09:20:08;;;;;;;;;5.00;4.00;;;;;16.84;100.00;101309.81;5014436;28;45675;-78
2023/03/29 09:22:52;;;;;;;;;6.00;4.00;;;;;16.96;100.00;101301.72;5012094;28;45417;-78
2023/03/29 09:25:24;;;;;;;;;4.00;4.00;;;;;17.06;100.00;101294.53;4997240;28;45506;-80
2023/03/29 09:28:02;;;;;;;;;4.00;4.00;;;;;17.18;100.00;101305.09;5014508;28;45647;-78
2023/03/29 09:30:54;;;;;;;;;5.00;4.00;;;;;17.28;100.00;101301.44;4995756;28;46832;-78
2023/03/29 09:33:30;;;;;;;;;7.67;4.00;;;;;17.34;100.00;101290.69;4981101;28;45625;-79
2023/03/29 09:36:04;;;;;;;;;4.67;3.33;;;;;17.42;100.00;101290.63;5013195;28;45416;-80
2023/03/29 09:38:30;;;;;;;;;7.00;3.67;;;;;17.46;100.00;101289.69;5013783;28;45585;-77
2023/03/29 09:41:01;;;;;;;;;3.00;3.00;;;;;17.51;100.00;101286.06;5012997;28;46653;-79
2023/03/29 09:43:33;;;;;;;;;7.00;3.00;;;;;17.58;100.00;101284.25;5012027;28;45463;-77
2023/03/29 09:46:02;;;;;;;;;3.33;3.33;;;;;17.67;100.00;101278.78;4993972;28;45578;-79
2023/03/29 09:48:30;;;;;;;;;4.00;2.67;;;;;17.76;100.00;101277.84;4992020;28;46520;-78
2023/03/29 09:50:56;;;;;;;;;5.00;2.33;;;;;17.80;100.00;101275.13;5019624;22;45554;-80
2023/03/29 09:53:22;;;;;;;;;3.33;2.33;;;;;17.88;100.00;101268.78;4995280;28;45460;-80
2023/03/29 09:55:49;;;;;;;;;4.67;3.00;;;;;17.89;100.00;101265.22;4994424;28;45671;-78
2023/03/29 09:58:33;;;;;;;;;6.00;3.00;;;;;17.93;100.00;101258.94;4996739;28;45460;-79
2023/03/29 10:01:00;;;;;;;;;5.00;3.33;;;;;17.97;100.00;101253.53;5020854;22;46587;-79
2023/03/29 10:03:29;;;;;;;;;4.00;3.33;;;;;18.00;100.00;101261.53;5011490;28;45519;-78
2023/03/29 10:05:58;;;;;;;;;5.00;3.33;;;;;18.02;100.00;101246.34;5016211;22;45464;-78
2023/03/29 10:08:36;;;;;;;;;5.00;3.00;;;;;18.03;100.00;101252.56;5014381;22;45865;-77
2023/03/29 10:11:25;;;;;;;;;4.67;3.00;;;;;18.03;100.00;101268.59;4988675;28;46646;-76
2023/03/29 10:13:56;;;;;;;;;3.00;3.00;;;;;17.99;100.00;101248.16;4999939;28;45538;-78
2023/03/29 10:16:29;;;;;;;;;4.00;3.00;;;;;17.99;100.00;101248.16;5016431;28;46331;-77
2023/03/29 10:18:55;;;;;;;;;2.67;2.00;;;;;17.98;100.00;101239.25;5011548;28;45522;-76
2023/03/29 10:21:21;;;;;;;;;3.33;3.00;;;;;17.98;100.00;101241.06;5013335;28;45573;-78
2023/03/29 10:23:47;;;;;;;;;4.67;2.00;;;;;18.00;100.00;101239.22;5010278;28;45301;-80
2023/03/29 10:26:30;;;;;;;;;5.00;3.00;;;;;18.04;100.00;101231.16;5013357;28;45553;-76
2023/03/29 10:28:59;;;;;;;;;5.33;3.00;;;;;18.10;100.00;101240.00;5017225;28;45645;-79
2023/03/29 10:31:25;;;;;;;;;3.33;3.33;;;;;18.15;100.00;101223.00;4988489;28;47462;-78
2023/03/29 10:33:55;;;;;;;;;1.00;1.00;;;;;18.21;100.00;101228.25;4999165;28;45517;-79
2023/03/29 10:36:22;;;;;;;;;3.00;3.00;;;;;18.27;100.00;101228.19;4991442;28;45513;-75
2023/03/29 10:38:49;;;;;;;;;4.67;2.00;;;;;18.39;100.00;101211.09;5002588;28;45612;-73
2023/03/29 10:41:16;;;;;;;;;3.00;2.33;;;;;18.54;100.00;101208.16;5013594;28;45521;-72
2023/03/29 10:43:48;;;;;;;;;4.00;2.67;;;;;18.67;100.00;101208.84;4999785;28;45552;-76
2023/03/29 10:46:24;;;;;;;;;6.00;2.67;;;;;18.78;100.00;101219.41;5015300;28;45275;-74
2023/03/29 10:48:58;;;;;;;;;6.67;3.33;;;;;18.83;100.00;101213.06;5017502;28;45339;-76
2023/03/29 10:51:26;;;;;;;;;2.67;2.00;;;;;18.87;100.00;101207.66;5017329;28;47026;-76
2023/03/29 10:53:52;;;;;;;;;3.00;1.33;;;;;18.92;100.00;101206.69;4999520;28;45570;-78
2023/03/29 10:56:23;;;;;;;;;2.67;2.33;;;;;18.97;100.00;101194.09;5015803;28;45473;-76
2023/03/29 10:59:08;;;;;;;;;1.67;1.00;;;;;19.03;100.00;101202.03;5017876;28;45606;-77
2023/03/29 11:01:41;;;;;;;;;1.67;1.33;;;;;19.11;100.00;101208.09;5011660;28;47509;-77
2023/03/29 11:04:28;;;;;;;;;2.67;1.67;;;;;19.20;100.00;101190.13;4997086;28;45489;-80
2023/03/29 11:07:29;;;;;;;;;3.67;2.33;;;;;19.27;100.00;101189.97;5017287;28;45371;-77
2023/03/29 11:10:04;;;;;;;;;3.33;2.00;;;;;19.41;100.00;101181.66;4995742;28;46507;-77
2023/03/29 11:12:43;;;;;;;;;2.00;2.00;;;;;19.54;100.00;101190.31;5017987;28;46448;-77
2023/03/29 11:15:50;;;;;;;;;2.67;1.67;;;;;19.68;100.00;101184.72;5006959;28;45409;-78
2023/03/29 11:18:29;;;;;;;;;3.33;2.33;;;;;19.79;100.00;101174.66;4993867;28;45465;-77
2023/03/29 11:21:15;;;;;;;;;1.67;1.67;;;;;19.88;100.00;101185.19;4998024;28;45462;-79
2023/03/29 11:23:47;;;;;;;;;1.67;1.67;;;;;19.99;100.00;101176.91;5016379;28;46821;-77
2023/03/29 11:26:37;;;;;;;;;4.67;1.67;;;;;20.09;100.00;101181.16;5017519;28;45475;-77